Time;durP1;ratioP1;P1;durP2;ratioP2;P2;SDS_P1;SDS_P2;PMS_P1;PMS_P2;Temp;Humidity;BMP_temperature;BMP_pressure;BME280_temperature;BME280_humidity;BME280_pressure;Samples;Min_cycle;Max_cycle;Signal;HPM_P1;HPM_P2
2021/12/05 00:16:52;;;;;;;23.17;8.20;;;3.90;99.90;;;;;;5020494;28;20041;-91
2021/12/05 05:01:47;;;;;;;43.40;16.52;;;3.00;99.90;;;;;;5452142;22;20042;-90
2021/12/05 05:04:24;;;;;;;38.58;16.30;;;3.00;99.90;;;;;;4983272;28;20057;-89
2021/12/05 05:06:50;;;;;;;43.20;17.00;;;3.00;99.90;;;;;;5000597;28;20434;-92
2021/12/05 05:09:16;;;;;;;40.67;15.18;;;2.90;99.90;;;;;;4983378;28;20049;-90
2021/12/05 05:11:42;;;;;;;39.10;16.08;;;2.90;99.90;;;;;;5012813;28;20022;-88
2021/12/05 05:14:09;;;;;;;41.65;15.60;;;2.90;99.90;;;;;;5019353;28;20118;-91
2021/12/05 05:16:35;;;;;;;36.25;15.13;;;2.80;99.90;;;;;;5019279;28;20124;-90
2021/12/05 05:19:02;;;;;;;38.58;15.98;;;2.80;99.90;;;;;;5019307;28;20046;-89
2021/12/05 05:21:38;;;;;;;34.30;14.10;;;2.80;99.90;;;;;;5037002;28;20049;-91
2021/12/05 05:50:20;;;;;;;32.53;12.80;;;2.50;99.90;;;;;;5018585;28;20448;-90
2021/12/05 05:52:46;;;;;;;32.58;12.93;;;2.50;99.90;;;;;;5002052;28;20045;-89
2021/12/05 05:55:13;;;;;;;31.40;12.18;;;2.50;99.90;;;;;;5019041;28;20080;-92
2021/12/05 05:57:42;;;;;;;30.65;12.07;;;2.40;99.90;;;;;;5017183;28;20053;-91
2021/12/05 06:00:27;;;;;;;35.47;11.85;;;2.50;99.90;;;;;;5017924;28;20037;-89
2021/12/05 06:05:36;;;;;;;29.77;11.02;;;2.50;99.90;;;;;;5036146;28;20041;-90
2021/12/05 06:08:02;;;;;;;34.38;10.98;;;2.50;99.90;;;;;;5018654;28;20082;-90
2021/12/05 06:10:30;;;;;;;28.70;10.40;;;2.50;99.90;;;;;;5018085;28;20037;-90
2021/12/05 06:12:55;;;;;;;36.13;11.73;;;2.50;99.90;;;;;;5018322;28;20080;-90
2021/12/05 06:15:24;;;;;;;27.13;10.43;;;2.60;99.90;;;;;;5017841;28;20075;-90
2021/12/05 06:17:49;;;;;;;27.27;10.13;;;2.60;99.90;;;;;;5018139;28;20045;-91
2021/12/05 06:20:18;;;;;;;29.20;10.18;;;2.60;99.90;;;;;;5035706;28;20430;-90
2021/12/05 06:22:46;;;;;;;30.75;11.30;;;2.60;99.90;;;;;;5017873;28;20038;-92
2021/12/05 06:25:19;;;;;;;30.77;11.25;;;2.70;99.90;;;;;;5002044;28;20049;-88
2021/12/05 06:27:45;;;;;;;34.15;11.00;;;2.70;99.90;;;;;;5018357;28;20481;-89
2021/12/05 06:30:16;;;;;;;34.08;11.45;;;2.70;99.90;;;;;;5001414;28;20041;-92
2021/12/05 06:41:06;;;;;;;29.42;9.52;;;2.70;99.90;;;;;;5017670;28;20409;-90
2021/12/05 06:46:22;;;;;;;30.75;10.85;;;2.80;99.90;;;;;;5017406;28;20049;-88
2021/12/05 06:48:48;;;;;;;29.88;9.73;;;2.80;99.90;;;;;;5017471;28;20116;-91
2021/12/05 06:51:20;;;;;;;29.88;9.57;;;2.80;99.90;;;;;;5017504;28;20095;-89
2021/12/05 06:53:46;;;;;;;29.77;9.30;;;2.80;99.90;;;;;;5001250;28;20129;-91
2021/12/05 06:56:12;;;;;;;32.78;9.52;;;2.90;99.90;;;;;;5017493;28;20095;-90
2021/12/05 06:58:38;;;;;;;35.22;10.98;;;2.90;99.90;;;;;;5035216;28;20038;-91
2021/12/05 07:01:07;;;;;;;28.70;10.38;;;2.90;99.90;;;;;;5000264;28;20037;-90
2021/12/05 07:03:36;;;;;;;27.20;10.18;;;2.90;99.90;;;;;;5001211;28;20076;-90
2021/12/05 07:08:32;;;;;;;31.83;11.73;;;3.00;99.90;;;;;;5016781;28;20052;-90
2021/12/05 07:11:10;;;;;;;34.33;11.13;;;3.00;99.90;;;;;;5016949;28;20116;-90
2021/12/05 07:16:42;;;;;;;36.90;11.55;;;3.10;99.90;;;;;;5017065;28;20049;-92
2021/12/05 07:19:37;;;;;;;31.10;11.30;;;3.10;99.90;;;;;;5018734;28;20034;-91
2021/12/05 07:22:16;;;;;;;31.63;11.00;;;3.10;99.90;;;;;;5017163;28;20090;-88
2021/12/05 07:24:49;;;;;;;31.35;11.63;;;3.10;99.90;;;;;;5017290;28;20041;-90
2021/12/05 07:40:50;;;;;;;36.28;12.32;;;3.20;99.90;;;;;;5016953;28;20085;-91
2021/12/05 07:43:16;;;;;;;32.67;13.20;;;3.20;99.90;;;;;;5001226;28;20128;-89
2021/12/05 07:46:00;;;;;;;33.22;13.90;;;3.30;99.90;;;;;;5000585;28;20041;-90
2021/12/05 07:48:27;;;;;;;46.38;14.45;;;3.30;99.90;;;;;;5017720;28;20039;-88
2021/12/05 07:51:09;;;;;;;39.88;13.98;;;3.30;99.90;;;;;;5000397;28;20144;-89
2021/12/05 07:53:47;;;;;;;33.95;12.95;;;3.30;99.90;;;;;;5000394;28;20042;-91
2021/12/05 07:56:19;;;;;;;40.38;14.40;;;3.40;99.90;;;;;;5001583;28;20056;-90
2021/12/05 07:59:10;;;;;;;41.08;15.25;;;3.30;99.90;;;;;;5017309;28;20057;-90
2021/12/05 08:15:28;;;;;;;40.90;15.07;;;3.40;99.90;;;;;;5021472;28;20377;-92
2021/12/05 08:17:58;;;;;;;34.08;13.70;;;3.40;99.90;;;;;;5004318;28;20037;-92
2021/12/05 08:20:37;;;;;;;39.47;14.75;;;3.40;99.90;;;;;;5020026;28;20045;-92
2021/12/05 08:23:06;;;;;;;37.10;14.05;;;3.50;99.90;;;;;;5004731;28;20420;-91
2021/12/05 08:25:35;;;;;;;36.78;14.27;;;3.40;99.90;;;;;;5003847;28;20053;-92
2021/12/05 08:28:29;;;;;;;39.63;14.52;;;3.50;99.90;;;;;;5004369;28;20057;-86
2021/12/05 08:31:09;;;;;;;41.88;14.15;;;3.50;99.90;;;;;;5018950;28;20049;-87
2021/12/05 08:34:34;;;;;;;41.97;13.63;;;3.50;99.90;;;;;;5019361;28;20056;-86
2021/12/05 08:45:17;;;;;;;39.40;15.30;;;3.50;99.90;;;;;;5019701;28;20444;-92
2021/12/05 09:23:41;;;;;;;39.17;13.70;;;3.60;99.90;;;;;;5018898;28;20552;-91
2021/12/05 09:29:08;;;;;;;34.95;13.95;;;3.70;99.90;;;;;;5018144;28;20107;-91
2021/12/05 09:53:32;;;;;;;35.92;15.02;;;3.90;99.90;;;;;;5018290;28;20052;-90
2021/12/05 10:11:40;;;;;;;33.42;13.23;;;4.00;99.90;;;;;;5017456;28;20038;-89
2021/12/05 10:14:25;;;;;;;30.00;12.27;;;4.00;99.90;;;;;;5017707;28;20449;-90
2021/12/05 10:34:59;;;;;;;34.28;11.60;;;4.10;99.90;;;;;;5017412;28;20041;-90
2021/12/05 10:37:26;;;;;;;24.35;11.30;;;4.10;99.90;;;;;;5035529;28;20441;-92
2021/12/05 10:40:34;;;;;;;29.08;11.30;;;4.10;99.90;;;;;;5001636;28;20042;-90
2021/12/05 10:43:01;;;;;;;25.27;11.32;;;4.10;99.90;;;;;;4992290;28;20508;-90
2021/12/05 10:45:40;;;;;;;25.10;11.25;;;4.10;99.90;;;;;;5016758;28;20087;-92
2021/12/05 10:48:10;;;;;;;27.42;12.07;;;4.10;99.90;;;;;;5018017;28;20033;-92
2021/12/05 10:50:41;;;;;;;31.02;11.90;;;4.10;99.90;;;;;;5001315;28;20038;-90
2021/12/05 10:53:28;;;;;;;27.00;11.68;;;4.10;99.90;;;;;;5017728;28;20041;-89
2021/12/05 10:55:55;;;;;;;28.75;11.55;;;4.10;99.90;;;;;;5016964;28;20129;-89
2021/12/05 10:58:30;;;;;;;25.27;10.93;;;4.20;99.90;;;;;;5000104;28;20049;-92
2021/12/05 11:01:06;;;;;;;27.85;10.50;;;4.20;99.90;;;;;;5025456;28;20087;-89
2021/12/05 11:03:32;;;;;;;27.17;11.60;;;4.20;99.90;;;;;;5014943;28;20048;-91
2021/12/05 11:05:59;;;;;;;27.55;10.70;;;4.20;99.90;;;;;;5023293;28;20061;-91
2021/12/05 11:08:36;;;;;;;26.63;11.18;;;4.20;99.90;;;;;;5028902;28;20515;-92
2021/12/05 11:11:14;;;;;;;23.33;10.77;;;4.30;99.90;;;;;;5018098;28;20041;-91
2021/12/05 11:13:43;;;;;;;29.40;10.75;;;4.30;99.90;;;;;;5016389;28;20124;-91
2021/12/05 11:16:30;;;;;;;20.75;10.40;;;4.30;99.90;;;;;;5016990;28;20029;-91
2021/12/05 11:18:56;;;;;;;24.55;10.70;;;4.30;99.90;;;;;;5000191;28;20489;-90
2021/12/05 11:21:34;;;;;;;24.60;10.88;;;4.30;99.90;;;;;;5015823;28;20055;-91
2021/12/05 11:24:12;;;;;;;21.67;10.93;;;4.30;99.90;;;;;;5016666;28;20042;-91
2021/12/05 11:26:40;;;;;;;22.88;10.80;;;4.30;99.90;;;;;;5016966;28;20117;-90
2021/12/05 11:29:08;;;;;;;26.15;10.15;;;4.30;99.90;;;;;;4999030;28;20080;-91
2021/12/05 11:31:35;;;;;;;24.25;10.30;;;4.30;99.90;;;;;;5000354;28;20144;-91
2021/12/05 11:34:01;;;;;;;25.40;10.90;;;4.30;99.90;;;;;;5016724;28;20463;-90
2021/12/05 11:36:34;;;;;;;25.27;11.00;;;4.40;99.90;;;;;;5016266;28;20092;-89
2021/12/05 11:39:19;;;;;;;24.63;10.82;;;4.40;99.90;;;;;;5016619;28;20033;-90
2021/12/05 11:41:44;;;;;;;25.35;11.43;;;4.40;99.90;;;;;;5015905;28;20049;-89
2021/12/05 11:44:20;;;;;;;23.50;10.48;;;4.40;99.90;;;;;;5016050;28;20396;-90
2021/12/05 11:46:46;;;;;;;21.90;10.73;;;4.40;99.90;;;;;;5002589;28;20033;-90
2021/12/05 11:49:19;;;;;;;21.23;11.02;;;4.40;99.90;;;;;;5004059;28;20335;-90
2021/12/05 11:51:56;;;;;;;23.90;11.30;;;4.40;99.90;;;;;;5020527;28;20052;-91
2021/12/05 11:54:24;;;;;;;21.60;10.38;;;4.40;99.90;;;;;;5003816;28;20046;-89
2021/12/05 11:57:02;;;;;;;28.23;10.43;;;4.40;99.90;;;;;;5003765;28;20088;-91
2021/12/05 11:59:52;;;;;;;24.25;10.75;;;4.40;99.90;;;;;;5020203;28;20485;-91
2021/12/05 12:02:46;;;;;;;26.30;10.80;;;4.50;99.90;;;;;;5020188;28;20038;-80
2021/12/05 12:05:23;;;;;;;18.70;9.80;;;4.50;99.90;;;;;;5037611;28;20044;-88
2021/12/05 12:07:52;;;;;;;22.75;10.57;;;4.50;99.90;;;;;;5004328;28;20041;-88
2021/12/05 12:10:44;;;;;;;25.52;10.20;;;4.50;99.90;;;;;;5036650;28;20048;-89
2021/12/05 12:13:25;;;;;;;21.23;10.85;;;4.60;99.90;;;;;;5004715;28;20456;-91
2021/12/05 12:16:02;;;;;;;26.02;11.27;;;4.60;99.90;;;;;;5003614;28;20043;-91
2021/12/05 12:18:39;;;;;;;22.20;10.25;;;4.70;99.90;;;;;;5004036;28;20041;-92
2021/12/05 12:21:39;;;;;;;22.30;10.88;;;4.70;99.90;;;;;;5002746;28;20440;-92
2021/12/05 12:24:39;;;;;;;22.55;10.77;;;4.70;99.90;;;;;;4957884;28;20059;-91
2021/12/05 12:27:07;;;;;;;18.25;9.50;;;4.80;99.90;;;;;;4925140;29;20051;-90
2021/12/05 12:29:34;;;;;;;20.83;9.80;;;4.80;99.90;;;;;;4925282;29;20055;-90
2021/12/05 12:32:12;;;;;;;19.85;9.25;;;4.80;99.90;;;;;;4925519;29;20039;-91
2021/12/05 12:34:41;;;;;;;18.77;9.52;;;4.80;99.90;;;;;;4924928;29;20047;-92
2021/12/05 12:37:07;;;;;;;16.95;9.23;;;4.80;99.90;;;;;;4941979;29;20055;-92
2021/12/05 12:40:18;;;;;;;;;;;;;;;;;;;;;
2021/12/05 12:47:17;;;;;;;;;;;;;;;;;;;;;
2021/12/05 12:50:02;;;;;;;;;;;;;;;;;;;;;
2021/12/05 13:04:16;;;;;;;18.77;8.85;;;4.90;99.90;;;;;;5038827;28;20408;-92
2021/12/05 13:16:32;;;;;;;;;;;;;;;;;;;;;
2021/12/05 13:23:38;;;;;;;;;;;;;;;;;;;;;
2021/12/05 13:26:47;;;;;;;;;;;5.10;99.90;;;;;;4999119;28;20054;-92
2021/12/05 13:37:53;;;;;;;20.45;9.80;;;5.10;99.90;;;;;;4900181;29;20056;-93
2021/12/05 14:13:56;;;;;;;16.48;8.32;;;5.20;99.90;;;;;;5052876;28;20060;-89
2021/12/05 14:16:34;;;;;;;17.77;8.00;;;5.20;99.90;;;;;;5021509;28;20534;-90
2021/12/05 14:19:14;;;;;;;15.02;6.97;;;5.20;99.90;;;;;;5022748;28;20056;-89
2021/12/05 14:21:44;;;;;;;17.40;7.45;;;5.20;99.90;;;;;;5036455;28;20041;-90
2021/12/05 14:24:17;;;;;;;15.65;7.53;;;5.20;99.90;;;;;;5038048;28;20522;-90
2021/12/05 14:26:54;;;;;;;14.43;7.00;;;5.20;99.90;;;;;;5020795;28;20118;-90
2021/12/05 14:29:24;;;;;;;17.67;7.20;;;5.30;99.90;;;;;;5038296;28;20059;-90
2021/12/05 14:32:03;;;;;;;15.30;7.05;;;5.30;99.90;;;;;;5038548;28;20043;-89
2021/12/05 14:34:30;;;;;;;14.15;6.57;;;5.30;99.90;;;;;;5038085;28;20051;-89
2021/12/05 14:37:22;;;;;;;12.52;7.25;;;5.20;99.90;;;;;;5020889;28;20502;-89
2021/12/05 14:40:02;;;;;;;26.30;10.23;;;5.20;99.90;;;;;;5037030;28;20437;-89
2021/12/05 14:42:49;;;;;;;19.55;8.43;;;5.20;99.90;;;;;;5021512;28;20108;-90
2021/12/05 14:45:37;;;;;;;16.38;7.78;;;5.20;99.90;;;;;;5044665;28;20044;-90
2021/12/05 14:48:15;;;;;;;16.98;8.10;;;5.20;99.90;;;;;;5058184;28;20079;-91
2021/12/05 14:50:44;;;;;;;14.15;7.32;;;5.10;99.90;;;;;;5032726;28;20033;-90
2021/12/05 14:53:13;;;;;;;13.43;7.05;;;5.00;99.90;;;;;;5040515;28;20048;-89
2021/12/05 14:55:52;;;;;;;;;;;;;;;;;;;;;
2021/12/05 14:58:19;;;;;;;17.40;9.93;;;5.00;99.90;;;;;;5037320;28;20052;-90
2021/12/05 15:00:50;;;;;;;14.88;9.35;;;5.00;99.90;;;;;;5020997;28;20101;-89
2021/12/05 15:03:19;;;;;;;13.70;8.38;;;5.00;99.90;;;;;;5021757;28;20048;-90
2021/12/05 15:05:54;;;;;;;16.88;8.85;;;4.90;99.90;;;;;;5019804;28;20112;-90
2021/12/05 15:08:23;;;;;;;22.80;10.00;;;4.90;99.90;;;;;;5036902;28;20040;-89
2021/12/05 15:10:54;;;;;;;19.40;9.10;;;4.80;99.90;;;;;;5020247;28;20473;-90
2021/12/05 15:13:42;;;;;;;19.13;8.32;;;4.80;99.90;;;;;;5036726;28;20124;-91
2021/12/05 15:16:37;;;;;;;18.73;8.43;;;4.70;99.90;;;;;;5018677;28;20048;-91
2021/12/05 15:19:21;;;;;;;15.35;7.50;;;4.70;99.90;;;;;;5020268;28;20488;-89
2021/12/05 15:24:27;;;;;;;15.38;8.18;;;4.60;99.90;;;;;;5019923;23;20270;-91
2021/12/05 15:26:58;;;;;;;16.40;8.02;;;4.50;99.90;;;;;;4981421;28;20506;-93
2021/12/05 15:30:13;;;;;;;17.85;8.95;;;4.60;99.90;;;;;;4982022;28;20034;-91
2021/12/05 15:33:38;;;;;;;;;;;;;;;;;;;;;
2021/12/05 15:36:37;;;;;;;;;;;;;;;;;;;;;
2021/12/05 15:39:30;;;;;;;19.95;9.10;;;4.40;99.90;;;;;;4914545;28;20058;-89
2021/12/05 15:42:08;;;;;;;22.15;9.75;;;4.40;99.90;;;;;;4961640;28;20115;-92
2021/12/05 15:44:39;;;;;;;26.70;12.75;;;4.40;99.90;;;;;;4962267;28;20042;-90
2021/12/05 15:47:43;;;;;;;18.63;10.35;;;4.40;99.90;;;;;;4961355;28;20061;-92
2021/12/05 15:50:33;;;;;;;18.95;10.35;;;4.40;99.90;;;;;;4884871;29;20059;-91
2021/12/05 15:53:05;;;;;;;18.95;9.60;;;4.40;99.90;;;;;;4884237;29;20143;-92
2021/12/05 15:55:50;;;;;;;15.68;8.35;;;4.30;99.90;;;;;;4884567;29;20063;-90
2021/12/05 15:58:29;;;;;;;;;;;;;;;;;;;;;
2021/12/05 16:01:24;;;;;;;18.17;9.25;;;4.30;99.90;;;;;;4899723;29;20071;-91
2021/12/05 16:04:04;;;;;;;18.67;9.98;;;4.30;99.90;;;;;;4899476;29;20048;-91
2021/12/05 16:06:44;;;;;;;;;;;;;;;;;;;;;
2021/12/05 16:09:20;;;;;;;18.70;10.18;;;4.20;99.90;;;;;;4898785;29;20117;-91
2021/12/05 16:11:48;;;;;;;18.98;9.88;;;4.20;99.90;;;;;;4883519;29;20064;-89
2021/12/05 16:14:30;;;;;;;27.38;11.68;;;4.20;99.90;;;;;;4929769;28;20437;-90
2021/12/05 16:16:59;;;;;;;18.30;10.73;;;4.20;99.90;;;;;;4976078;28;20050;-91
2021/12/05 16:20:01;;;;;;;24.55;11.80;;;4.30;99.90;;;;;;4976046;28;20054;-90
2021/12/05 16:22:27;;;;;;;24.90;11.70;;;4.20;99.90;;;;;;4975523;28;20038;-90
2021/12/05 16:24:58;;;;;;;25.92;13.20;;;4.20;99.90;;;;;;4959725;28;20050;-88
2021/12/05 16:28:05;;;;;;;24.38;14.20;;;4.20;99.90;;;;;;4959314;28;20549;-92
2021/12/05 16:30:36;;;;;;;24.77;14.20;;;4.20;99.90;;;;;;4935891;28;20044;-90
2021/12/05 16:33:05;;;;;;;22.83;12.68;;;4.20;99.90;;;;;;4938795;29;20085;-90
2021/12/05 16:35:46;;;;;;;27.38;13.75;;;4.20;99.90;;;;;;4940227;29;20059;-91
2021/12/05 16:38:29;;;;;;;25.88;13.23;;;4.20;99.90;;;;;;4940045;29;20039;-89
2021/12/05 16:40:57;;;;;;;29.02;14.55;;;4.20;99.90;;;;;;4924453;29;20566;-91
2021/12/05 16:43:28;;;;;;;26.23;13.52;;;4.20;99.90;;;;;;4954967;29;20055;-89
2021/12/05 16:46:27;;;;;;;28.05;14.45;;;4.20;99.90;;;;;;4939712;29;20106;-90
2021/12/05 16:48:56;;;;;;;30.65;14.25;;;4.20;99.90;;;;;;4939152;29;20540;-90
2021/12/05 16:51:26;;;;;;;25.40;14.15;;;4.20;99.90;;;;;;4939413;29;20054;-90
2021/12/05 16:54:03;;;;;;;25.33;13.70;;;4.20;99.90;;;;;;4939206;29;20043;-92
2021/12/05 17:00:09;;;;;;;31.08;14.50;;;4.20;99.90;;;;;;4919629;29;20052;-91
2021/12/05 17:02:44;;;;;;;31.10;15.45;;;4.30;99.90;;;;;;4974348;28;20431;-93
2021/12/05 17:05:48;;;;;;;34.22;16.90;;;4.30;99.90;;;;;;4963359;28;20124;-92
2021/12/05 17:08:46;;;;;;;30.48;17.50;;;4.30;99.90;;;;;;4963922;28;20046;-93
2021/12/05 17:11:18;;;;;;;30.73;17.00;;;4.30;99.90;;;;;;4961923;28;20037;-89
2021/12/05 17:13:57;;;;;;;26.73;14.93;;;4.30;99.90;;;;;;4961715;28;20086;-92
2021/12/05 17:17:14;;;;;;;30.33;15.20;;;4.30;99.90;;;;;;4963018;28;20046;-92
2021/12/05 17:20:37;;;;;;;31.40;14.48;;;4.40;99.90;;;;;;4963910;28;20076;-90
2021/12/05 17:24:26;;;;;;;33.17;15.02;;;4.30;99.90;;;;;;4962853;28;20054;-90
2021/12/05 17:27:04;;;;;;;27.55;14.57;;;4.30;99.90;;;;;;4909996;29;20048;-88
2021/12/05 17:29:39;;;;;;;27.40;13.85;;;4.30;99.90;;;;;;4885952;28;20483;-91
2021/12/05 17:32:11;;;;;;;29.38;15.55;;;4.30;99.90;;;;;;4978411;28;20125;-90
2021/12/05 17:34:58;;;;;;;34.55;16.02;;;4.30;99.90;;;;;;4963240;28;20050;-90
2021/12/05 17:38:30;;;;;;;;;;;;;;;;;;;;;
2021/12/05 17:41:48;;;;;;;39.30;17.17;;;4.40;99.90;;;;;;4860699;29;20227;-92
2021/12/05 17:45:03;;;;;;;35.58;17.38;;;4.40;99.90;;;;;;4839719;29;20065;-90
2021/12/05 17:47:58;;;;;;;38.20;17.17;;;4.40;99.90;;;;;;4839703;29;20124;-91
2021/12/05 17:50:26;;;;;;;35.70;17.45;;;4.40;99.90;;;;;;4835076;28;20120;-89
2021/12/05 17:52:52;;;;;;;38.42;17.63;;;4.40;99.90;;;;;;4961868;28;20177;-90
2021/12/05 17:55:44;;;;;;;47.28;20.13;;;4.40;99.90;;;;;;4960987;28;20050;-91
2021/12/05 17:58:49;;;;;;;;;;;;;;;;;;;;;
2021/12/05 18:04:41;;;;;;;41.78;16.67;;;4.50;99.90;;;;;;4897236;29;20584;-88
2021/12/05 18:13:38;;;;;;;44.22;18.60;;;4.60;99.90;;;;;;5930120;22;21395;-91
2021/12/05 18:22:59;;;;;;;45.20;20.58;;;4.60;99.90;;;;;;5236229;22;20077;-88
2021/12/05 18:26:37;;;;;;;;;;;;;;;;;;;;;
2021/12/05 19:28:03;;;;;;;;;;;;;;;;;;;;;
2021/12/05 19:37:21;;;;;;;62.72;26.20;;;4.60;99.90;;;;;;4933560;29;20095;-90
2021/12/05 19:39:47;;;;;;;66.32;26.83;;;4.60;99.90;;;;;;4910600;28;20079;-86
2021/12/05 19:42:25;;;;;;;71.70;28.48;;;4.60;99.90;;;;;;4995581;28;20132;-88
2021/12/05 19:44:55;;;;;;;59.97;25.67;;;4.60;99.90;;;;;;5014960;28;20048;-87
2021/12/05 19:47:56;;;;;;;62.70;26.73;;;4.60;99.90;;;;;;4999005;28;20131;-88
2021/12/05 19:51:08;;;;;;;;;;;;;;;;;;;;;
2021/12/05 19:53:40;;;;;;;62.15;26.05;;;4.60;99.90;;;;;;4974104;28;20164;-89
2021/12/05 19:56:16;;;;;;;65.85;27.67;;;4.60;99.90;;;;;;4975294;28;20082;-88
2021/12/05 19:58:41;;;;;;;66.13;28.00;;;4.60;99.90;;;;;;4975235;28;20050;-90
2021/12/05 20:01:09;;;;;;;63.30;27.75;;;4.60;99.90;;;;;;4958794;28;20074;-88
2021/12/05 20:03:37;;;;;;;65.63;27.48;;;4.60;99.90;;;;;;4974819;28;20058;-88
2021/12/05 20:06:03;;;;;;;63.22;27.25;;;4.60;99.90;;;;;;4990978;28;20506;-89
2021/12/05 20:08:29;;;;;;;59.13;24.38;;;4.60;99.90;;;;;;4962332;28;20041;-87
2021/12/05 20:10:56;;;;;;;59.97;26.75;;;4.60;99.90;;;;;;4977713;28;20525;-87
2021/12/05 20:13:44;;;;;;;;;;;;;;;;;;;;;
2021/12/05 20:16:14;;;;;;;59.90;25.48;;;4.60;99.90;;;;;;4978371;28;20158;-89
2021/12/05 20:18:41;;;;;;;63.63;27.88;;;4.60;99.90;;;;;;4977593;28;20847;-90
2021/12/05 20:21:31;;;;;;;61.13;26.35;;;4.60;99.90;;;;;;4994234;28;20467;-89
2021/12/05 20:24:01;;;;;;;61.85;26.77;;;4.50;99.90;;;;;;5001495;28;20045;-88
2021/12/05 20:26:48;;;;;;;68.57;28.30;;;4.50;99.90;;;;;;5001373;28;20076;-88
2021/12/05 20:29:23;;;;;;;56.08;25.67;;;4.50;99.90;;;;;;5003493;28;20366;-88
2021/12/05 20:31:53;;;;;;;53.60;24.65;;;4.40;99.90;;;;;;5001680;28;20072;-87
2021/12/05 20:34:34;;;;;;;57.63;24.55;;;4.40;99.90;;;;;;5001277;28;20458;-87
2021/12/05 20:37:01;;;;;;;56.13;23.85;;;4.30;99.90;;;;;;5017808;28;20048;-88
2021/12/05 20:39:30;;;;;;;52.40;22.83;;;4.30;99.90;;;;;;5018352;28;20067;-90
2021/12/05 20:42:50;;;;;;;;;;;;;;;;;;;;;
2021/12/05 20:46:11;;;;;;;;;;;;;;;;;;;;;
2021/12/05 20:49:10;;;;;;;;;;;;;;;;;;;;;
2021/12/05 20:51:38;;;;;;;44.20;21.05;;;4.10;99.90;;;;;;5017244;28;20049;-89
2021/12/05 20:54:35;;;;;;;51.28;21.88;;;4.10;99.90;;;;;;5018036;28;20485;-88
2021/12/05 20:57:13;;;;;;;45.40;20.60;;;4.00;99.90;;;;;;4995987;28;20124;-87
2021/12/05 20:59:41;;;;;;;51.38;21.58;;;4.00;99.90;;;;;;4997032;28;20497;-88
2021/12/05 21:02:07;;;;;;;43.78;21.80;;;4.10;99.90;;;;;;4980734;28;20060;-88
2021/12/05 21:04:33;;;;;;;49.00;21.70;;;4.00;99.90;;;;;;4997812;28;20045;-87
2021/12/05 21:07:07;;;;;;;40.08;19.92;;;4.00;99.90;;;;;;4997431;28;20093;-88
2021/12/05 21:09:54;;;;;;;46.22;21.95;;;4.00;99.90;;;;;;4981498;28;20130;-88
2021/12/05 21:12:29;;;;;;;43.05;20.58;;;3.90;99.90;;;;;;4980152;28;20142;-89
2021/12/05 21:15:25;;;;;;;;;;;;;;;;;;;;;
2021/12/05 21:18:27;;;;;;;52.83;22.58;;;3.90;99.90;;;;;;4996158;28;20081;-89
2021/12/05 21:21:19;;;;;;;51.67;22.15;;;3.90;99.90;;;;;;4926270;28;20145;-90
2021/12/05 21:23:59;;;;;;;47.75;21.67;;;3.90;99.90;;;;;;4957819;28;20086;-89
2021/12/05 21:26:26;;;;;;;51.10;21.27;;;3.90;99.90;;;;;;4942031;28;20059;-89
2021/12/05 21:32:43;;;;;;;48.85;22.05;;;3.80;99.90;;;;;;4956321;28;20054;-88
2021/12/05 21:35:18;;;;;;;51.25;22.02;;;3.70;99.90;;;;;;4958124;28;20487;-89
2021/12/05 21:37:50;;;;;;;50.25;21.85;;;3.70;99.90;;;;;;4957727;28;20054;-89
2021/12/05 21:40:30;;;;;;;49.53;21.63;;;3.70;99.90;;;;;;4957864;28;20035;-90
2021/12/05 21:42:57;;;;;;;51.42;23.50;;;3.60;99.90;;;;;;4958010;28;20055;-86
2021/12/05 21:49:40;;;;;;;48.92;22.23;;;3.60;99.90;;;;;;4947817;28;20043;-90
2021/12/05 22:08:31;;;;;;;47.67;22.55;;;3.40;99.90;;;;;;4863969;29;20088;-90
2021/12/05 22:23:32;;;;;;;;;;;;;;;;;;;;;
2021/12/05 22:26:32;;;;;;;;;;;;;;;;;;;;;
2021/12/05 22:29:16;;;;;;;37.13;20.25;;;3.40;99.90;;;;;;4994388;28;20056;-91
2021/12/05 22:32:31;;;;;;;;;;;;;;;;;;;;;
2021/12/05 22:39:53;;;;;;;38.95;20.30;;;3.40;99.90;;;;;;4916554;29;20135;-91
2021/12/05 22:43:06;;;;;;;34.55;19.10;;;3.30;99.90;;;;;;4882695;29;20052;-91
2021/12/05 22:49:44;;;;;;;;;;;;;;;;;;;;;
2021/12/05 22:52:36;;;;;;;28.88;16.27;;;3.30;99.90;;;;;;4857234;29;20060;-92
2021/12/05 22:59:01;;;;;;;26.98;15.82;;;3.20;99.90;;;;;;4912327;29;20044;-91
2021/12/05 23:01:31;;;;;;;28.98;16.63;;;3.20;99.90;;;;;;4885079;29;20052;-91
2021/12/05 23:08:04;;;;;;;25.75;15.27;;;3.20;99.90;;;;;;4959206;28;20042;-90
2021/12/05 23:10:39;;;;;;;30.55;17.25;;;3.20;99.90;;;;;;4960731;28;20050;-90
2021/12/05 23:13:11;;;;;;;29.05;16.83;;;3.10;99.90;;;;;;4961130;28;20487;-89
